Time;durP1;ratioP1;P1;durP2;ratioP2;P2;SDS_P1;SDS_P2;PMS_P1;PMS_P2;Temp;Humidity;BMP_temperature;BMP_pressure;BME280_temperature;BME280_humidity;BME280_pressure;Samples;Min_cycle;Max_cycle;Signal;HPM_P1;HPM_P2
2020/12/30 00:00:13;;;;;;;5.30;4.28;;;;;;;2.70;67.51;93663.78;4991418;28;20042;-66
2020/12/30 00:02:39;;;;;;;5.85;4.80;;;;;;;2.70;67.19;93682.16;4991518;28;20472;-67
2020/12/30 00:05:07;;;;;;;6.80;4.47;;;;;;;2.59;67.71;93684.97;4993853;28;20097;-67
2020/12/30 00:07:33;;;;;;;6.25;4.97;;;;;;;2.57;67.87;93696.81;4991791;28;20070;-66
2020/12/30 00:09:59;;;;;;;5.75;4.63;;;;;;;2.46;68.81;93701.47;4991346;28;20046;-66
2020/12/30 00:12:28;;;;;;;9.23;5.40;;;;;;;2.28;68.87;93700.44;4991212;28;20432;-66
2020/12/30 00:14:55;;;;;;;7.43;5.30;;;;;;;2.24;69.00;93702.06;4991431;28;20068;-66
2020/12/30 00:17:20;;;;;;;10.23;5.85;;;;;;;2.06;69.13;93693.16;4993355;28;20038;-67
2020/12/30 00:19:45;;;;;;;8.55;6.13;;;;;;;2.01;69.69;93702.97;4991441;28;20046;-67
2020/12/30 00:22:11;;;;;;;7.72;6.13;;;;;;;1.86;69.79;93688.22;4991043;28;20048;-66
2020/12/30 00:24:36;;;;;;;9.07;6.43;;;;;;;1.83;70.19;93689.56;4989588;28;20097;-67
2020/12/30 00:27:02;;;;;;;9.98;6.10;;;;;;;1.77;70.53;93692.53;4991193;28;20559;-67
2020/12/30 00:29:28;;;;;;;9.25;6.38;;;;;;;1.77;70.83;93708.28;4990914;28;20050;-66
2020/12/30 00:31:53;;;;;;;10.68;6.15;;;;;;;1.64;71.14;93696.66;4992625;28;20073;-66
2020/12/30 00:34:18;;;;;;;7.72;6.03;;;;;;;1.62;71.11;93711.09;4991094;28;20040;-67
2020/12/30 00:36:44;;;;;;;8.73;5.32;;;;;;;1.50;71.30;93687.94;4990945;28;20039;-67
2020/12/30 00:39:09;;;;;;;8.73;6.05;;;;;;;1.42;71.81;93686.72;4990769;28;20046;-66
2020/12/30 00:41:34;;;;;;;7.75;5.55;;;;;;;1.51;71.97;93708.63;4989239;28;20053;-67
2020/12/30 00:44:00;;;;;;;6.22;5.55;;;;;;;1.39;72.02;93695.16;4992756;28;20411;-67
2020/12/30 00:46:25;;;;;;;10.35;7.07;;;;;;;1.35;72.22;93694.16;4990802;28;20042;-66
2020/12/30 00:48:51;;;;;;;10.07;6.13;;;;;;;1.41;72.16;93708.75;4990333;28;20061;-67
2020/12/30 00:51:17;;;;;;;9.18;5.90;;;;;;;1.38;72.29;93709.28;4989313;28;20053;-67
2020/12/30 00:53:42;;;;;;;8.25;6.03;;;;;;;1.36;72.46;93710.66;4990835;28;20042;-66
2020/12/30 00:56:09;;;;;;;6.72;4.63;;;;;;;1.28;72.51;93699.75;4992764;28;20038;-66
2020/12/30 00:58:38;;;;;;;7.97;5.80;;;;;;;1.30;72.86;93704.69;4988951;28;20038;-66
2020/12/30 01:01:05;;;;;;;7.45;5.90;;;;;;;1.30;72.81;93713.31;4990872;28;20077;-66
2020/12/30 01:03:30;;;;;;;7.18;5.80;;;;;;;1.26;72.51;93708.94;4990685;28;20030;-67
2020/12/30 01:05:56;;;;;;;10.80;5.93;;;;;;;1.22;72.59;93711.31;4989214;28;20042;-67
2020/12/30 01:08:22;;;;;;;8.93;6.25;;;;;;;1.21;72.90;93715.00;4989141;28;20033;-67
2020/12/30 01:10:47;;;;;;;7.22;5.50;;;;;;;1.16;72.90;93717.69;4992408;28;20035;-67
2020/12/30 01:13:13;;;;;;;9.60;6.25;;;;;;;1.19;72.76;93726.84;4990088;28;20041;-67
2020/12/30 01:15:38;;;;;;;11.07;7.03;;;;;;;1.18;72.81;93735.75;4990412;28;20034;-68
2020/12/30 01:18:03;;;;;;;11.02;6.05;;;;;;;1.13;73.07;93725.34;4990361;28;20039;-68
2020/12/30 01:20:28;;;;;;;8.98;5.97;;;;;;;1.06;73.02;93724.88;4988758;28;20026;-66
2020/12/30 01:22:54;;;;;;;9.07;6.82;;;;;;;1.00;73.20;93722.31;4991864;28;20018;-67
2020/12/30 01:25:19;;;;;;;8.30;6.28;;;;;;;0.91;73.26;93712.72;4990218;28;20042;-67
2020/12/30 01:27:44;;;;;;;8.48;6.35;;;;;;;0.98;73.38;93731.50;4990054;28;20112;-66
2020/12/30 01:30:10;;;;;;;9.35;6.88;;;;;;;0.96;73.50;93733.59;4988559;28;20114;-66
2020/12/30 01:32:35;;;;;;;10.35;7.78;;;;;;;0.91;73.46;93728.44;4989968;28;20034;-65
2020/12/30 01:35:00;;;;;;;9.48;6.95;;;;;;;0.90;73.51;93734.72;4992057;28;20040;-67
2020/12/30 01:37:26;;;;;;;8.13;6.35;;;;;;;0.84;73.61;93739.22;4990148;28;20074;-67
2020/12/30 01:39:51;;;;;;;13.00;7.20;;;;;;;0.86;73.85;93734.50;4988895;28;20054;-67
2020/12/30 01:42:16;;;;;;;10.77;8.00;;;;;;;0.86;73.85;93736.34;4989849;28;20062;-67
2020/12/30 01:44:42;;;;;;;9.85;7.15;;;;;;;0.60;73.86;93713.03;4988743;28;20471;-67
2020/12/30 01:47:07;;;;;;;10.82;8.02;;;;;;;0.80;74.16;93745.28;4991722;28;20068;-67
2020/12/30 01:49:33;;;;;;;9.98;8.02;;;;;;;0.82;74.12;93751.03;4988334;28;20050;-67
2020/12/30 01:52:00;;;;;;;13.52;8.35;;;;;;;0.80;74.18;93756.53;4989695;28;20042;-67
2020/12/30 01:54:26;;;;;;;11.38;7.35;;;;;;;0.76;74.22;93750.28;4989897;28;20451;-67
2020/12/30 01:56:52;;;;;;;9.20;8.27;;;;;;;0.69;74.20;93744.63;4989725;28;20484;-67
2020/12/30 01:59:18;;;;;;;9.20;8.13;;;;;;;0.74;74.47;93762.88;4990046;28;20089;-67
2020/12/30 02:01:52;;;;;;;14.55;7.60;;;;;;;0.80;74.68;93761.00;4968806;28;20457;-69
2020/12/30 02:04:23;;;;;;;8.80;7.55;;;;;;;0.72;74.61;93744.06;4986292;28;20042;-67
2020/12/30 02:06:49;;;;;;;12.50;8.50;;;;;;;0.88;74.93;93761.19;4989720;28;20057;-67
2020/12/30 02:09:14;;;;;;;8.05;7.18;;;;;;;0.88;74.67;93752.56;4988035;28;20030;-67
2020/12/30 02:11:40;;;;;;;16.48;7.57;;;;;;;0.98;74.81;93755.06;4989286;28;20383;-67
2020/12/30 02:14:07;;;;;;;10.07;7.22;;;;;;;1.03;74.87;93747.16;4991387;28;20459;-66
2020/12/30 02:16:46;;;;;;;9.88;6.75;;;;;;;1.15;74.58;93750.16;4989568;28;20057;-66
2020/12/30 02:19:12;;;;;;;9.73;6.85;;;;;;;1.12;74.10;93736.84;4989295;28;20395;-67
2020/12/30 02:21:37;;;;;;;7.53;6.70;;;;;;;1.36;73.91;93752.56;4989381;28;20133;-67
2020/12/30 02:24:03;;;;;;;9.82;5.93;;;;;;;1.45;73.90;93756.13;4989377;28;20042;-66
2020/12/30 02:26:28;;;;;;;7.43;6.63;;;;;;;1.60;74.12;93760.41;4989585;28;20109;-67
2020/12/30 02:28:54;;;;;;;8.10;5.97;;;;;;;1.66;73.21;93760.06;4991085;28;20031;-67
2020/12/30 02:31:19;;;;;;;7.93;6.00;;;;;;;1.74;73.25;93764.69;4987948;28;20664;-66
2020/12/30 02:33:44;;;;;;;6.00;5.25;;;;;;;1.69;72.68;93746.41;4988179;28;20049;-67
2020/12/30 02:36:12;;;;;;;5.95;5.00;;;;;;;1.83;73.10;93762.97;4989556;28;20076;-66
2020/12/30 02:38:38;;;;;;;7.00;5.63;;;;;;;1.90;72.83;93757.41;4988842;28;20026;-67
2020/12/30 02:41:05;;;;;;;7.65;4.93;;;;;;;1.96;72.32;93761.50;4991296;28;20503;-67
2020/12/30 02:43:30;;;;;;;6.80;5.32;;;;;;;2.01;72.00;93764.06;4989109;28;20038;-67
2020/12/30 02:45:56;;;;;;;9.77;5.88;;;;;;;2.04;71.95;93757.44;4989579;28;20057;-66
2020/12/30 02:48:21;;;;;;;9.18;5.57;;;;;;;2.09;72.09;93760.78;4989018;28;20026;-66
2020/12/30 02:50:46;;;;;;;7.63;5.50;;;;;;;2.21;72.18;93762.22;4990097;28;20404;-67
2020/12/30 02:53:11;;;;;;;8.68;5.75;;;;;;;2.29;71.65;93762.31;4994957;28;20076;-66
2020/12/30 02:55:37;;;;;;;7.28;5.47;;;;;;;2.38;71.63;93759.06;4991617;28;20050;-67
2020/12/30 02:58:02;;;;;;;5.85;5.25;;;;;;;2.50;71.51;93762.03;4992781;28;20400;-67
2020/12/30 03:00:27;;;;;;;6.43;5.28;;;;;;;2.54;71.14;93750.66;4992596;28;20070;-66
2020/12/30 03:02:52;;;;;;;6.40;5.50;;;;;;;2.66;70.70;93752.06;4992451;28;20129;-67
2020/12/30 03:05:18;;;;;;;8.00;5.10;;;;;;;2.76;70.25;93778.13;4994683;28;20033;-67
2020/12/30 03:07:43;;;;;;;6.22;5.05;;;;;;;2.75;70.26;93763.47;4992615;28;20051;-68
2020/12/30 03:10:08;;;;;;;4.82;3.97;;;;;;;2.75;69.57;93756.34;4992446;28;20104;-68
2020/12/30 03:12:33;;;;;;;5.38;4.35;;;;;;;2.82;69.52;93764.66;4991050;28;20046;-68
2020/12/30 03:14:59;;;;;;;5.38;4.82;;;;;;;2.74;69.71;93752.19;4991534;28;20073;-69
2020/12/30 03:17:24;;;;;;;6.18;3.95;;;;;;;2.83;69.54;93768.84;4992386;28;20430;-66
2020/12/30 03:19:49;;;;;;;5.30;3.70;;;;;;;2.77;69.00;93766.59;4993271;28;20058;-68
2020/12/30 03:22:15;;;;;;;5.03;4.10;;;;;;;2.80;69.42;93779.91;4992174;28;20038;-68
2020/12/30 03:24:40;;;;;;;5.70;4.05;;;;;;;2.72;68.83;93767.44;4991119;28;20130;-67
2020/12/30 03:27:05;;;;;;;4.35;3.03;;;;;;;2.02;70.33;93776.09;4992546;28;20046;-67
2020/12/30 03:29:30;;;;;;;4.18;3.17;;;;;;;1.74;71.92;93784.84;4992038;28;20424;-66
2020/12/30 03:31:56;;;;;;;3.92;3.10;;;;;;;1.85;71.86;93783.69;4993889;28;20030;-67
2020/12/30 03:34:21;;;;;;;4.22;3.47;;;;;;;2.05;71.38;93786.03;4991002;28;20484;-67
2020/12/30 03:36:46;;;;;;;4.30;3.35;;;;;;;2.25;71.76;93778.91;4992171;28;20395;-67
2020/12/30 03:39:11;;;;;;;5.38;2.67;;;;;;;2.41;71.17;93782.91;4991919;28;20128;-67
2020/12/30 03:41:37;;;;;;;4.65;3.50;;;;;;;2.53;70.96;93772.72;4990652;28;20037;-66
2020/12/30 03:44:02;;;;;;;4.07;2.60;;;;;;;2.60;70.11;93764.47;4994180;28;20480;-67
2020/12/30 03:46:27;;;;;;;5.25;2.95;;;;;;;2.79;70.36;93780.19;4990873;28;20093;-66
2020/12/30 03:48:53;;;;;;;3.22;2.55;;;;;;;2.94;70.06;93782.56;4991803;28;20101;-66
2020/12/30 03:51:18;;;;;;;3.60;2.20;;;;;;;3.00;69.71;93768.28;4991717;28;20096;-66
2020/12/30 03:53:43;;;;;;;4.38;2.78;;;;;;;3.15;69.35;93783.00;4992015;28;20097;-67
2020/12/30 03:56:09;;;;;;;3.03;2.22;;;;;;;3.25;69.24;93789.91;4993870;28;20464;-67
2020/12/30 03:58:34;;;;;;;6.25;2.10;;;;;;;3.22;68.17;93793.91;4991652;28;20041;-66
2020/12/30 04:00:59;;;;;;;2.65;1.85;;;;;;;3.28;68.35;93791.97;4991742;28;20042;-67
2020/12/30 04:03:24;;;;;;;6.55;1.73;;;;;;;3.19;67.82;93796.34;4991184;28;20031;-67
2020/12/30 04:05:51;;;;;;;3.42;2.38;;;;;;;3.08;67.87;93777.34;4990461;28;20069;-67
2020/12/30 04:08:17;;;;;;;2.35;1.55;;;;;;;3.24;67.87;93789.16;4993340;28;20035;-66
2020/12/30 04:10:42;;;;;;;2.97;1.83;;;;;;;3.37;67.96;93801.50;4991417;28;20134;-66
2020/12/30 04:13:08;;;;;;;2.92;1.63;;;;;;;3.15;67.06;93783.00;4991316;28;20141;-67
2020/12/30 04:15:33;;;;;;;4.40;1.90;;;;;;;3.38;67.94;93792.56;4991534;28;20038;-66
2020/12/30 04:17:58;;;;;;;2.83;1.88;;;;;;;3.36;67.54;93781.56;4990285;28;20100;-66
2020/12/30 04:20:23;;;;;;;2.83;1.80;;;;;;;3.45;67.52;93786.91;4990978;28;20034;-65
2020/12/30 04:22:49;;;;;;;5.18;1.65;;;;;;;3.52;67.20;93789.94;4992902;28;20089;-66
2020/12/30 04:25:14;;;;;;;2.03;1.60;;;;;;;3.54;67.24;93787.81;4991227;28;20043;-66
2020/12/30 04:27:40;;;;;;;2.45;1.70;;;;;;;3.57;66.80;93795.09;4990127;28;20051;-66
2020/12/30 04:30:06;;;;;;;3.70;1.90;;;;;;;3.55;66.54;93791.22;4990999;28;20074;-67
2020/12/30 04:32:31;;;;;;;2.22;1.58;;;;;;;3.57;66.91;93797.72;4990858;28;20033;-65
2020/12/30 04:34:56;;;;;;;2.40;1.63;;;;;;;3.62;67.11;93795.00;4993109;28;20032;-67
2020/12/30 04:37:21;;;;;;;3.42;1.85;;;;;;;3.57;66.26;93797.72;4991062;28;20056;-68
2020/12/30 04:39:47;;;;;;;1.92;1.20;;;;;;;3.51;66.60;93798.88;4991007;28;20035;-67
2020/12/30 04:42:16;;;;;;;4.18;1.67;;;;;;;3.51;66.74;93798.88;4990863;28;20042;-65
2020/12/30 04:44:48;;;;;;;3.92;1.67;;;;;;;3.49;67.03;93779.25;4989881;28;20048;-66
2020/12/30 04:47:14;;;;;;;2.58;1.52;;;;;;;3.61;67.04;93795.28;4993029;28;20058;-66
2020/12/30 04:49:39;;;;;;;2.45;1.50;;;;;;;3.58;67.09;93780.91;4990717;28;20043;-67
2020/12/30 04:52:05;;;;;;;2.42;1.75;;;;;;;3.70;66.70;93792.75;4990471;28;20096;-66
2020/12/30 04:54:30;;;;;;;3.15;1.30;;;;;;;3.69;66.48;93785.94;4990778;28;20447;-66
2020/12/30 04:56:59;;;;;;;1.70;1.27;;;;;;;3.78;67.01;93795.47;4990911;28;20104;-66
2020/12/30 04:59:29;;;;;;;2.35;1.10;;;;;;;3.81;66.68;93807.25;4989503;28;20088;-66
2020/12/30 05:02:11;;;;;;;2.33;1.23;;;;;;;3.75;65.83;93805.81;4992455;28;20038;-66
2020/12/30 05:04:40;;;;;;;2.10;1.33;;;;;;;3.70;65.99;93801.44;4990688;28;20093;-66
2020/12/30 05:07:13;;;;;;;2.17;0.95;;;;;;;3.70;66.23;93805.91;4990653;28;20042;-66
2020/12/30 05:09:40;;;;;;;2.15;1.33;;;;;;;3.37;66.23;93817.28;4990322;28;20500;-66
2020/12/30 05:12:17;;;;;;;2.38;1.40;;;;;;;2.88;68.45;93817.88;4990052;28;20049;-66
2020/12/30 05:14:43;;;;;;;2.60;1.70;;;;;;;2.15;71.19;93826.28;4989636;28;20030;-65
2020/12/30 05:17:10;;;;;;;2.80;1.60;;;;;;;1.90;73.04;93837.91;4990831;28;20029;-67
2020/12/30 05:19:36;;;;;;;3.65;1.95;;;;;;;2.16;71.96;93840.97;4990246;28;20521;-67
2020/12/30 05:22:02;;;;;;;2.97;2.00;;;;;;;2.04;72.57;93841.38;4990185;28;20039;-66
2020/12/30 05:24:32;;;;;;;3.10;2.10;;;;;;;2.40;71.77;93844.31;4989964;28;20168;-67
2020/12/30 05:27:00;;;;;;;2.50;2.08;;;;;;;2.75;70.77;93835.13;4990161;28;20053;-67
2020/12/30 05:29:26;;;;;;;3.85;2.33;;;;;;;2.96;70.05;93832.19;4989827;28;20027;-66
2020/12/30 05:31:54;;;;;;;2.42;2.10;;;;;;;3.21;69.48;93839.63;4991732;28;20041;-66
2020/12/30 05:34:20;;;;;;;2.88;2.25;;;;;;;3.35;69.36;93837.81;4990226;28;20038;-67
2020/12/30 05:36:50;;;;;;;3.38;2.90;;;;;;;3.55;69.02;93852.44;4990104;28;20034;-68
2020/12/30 05:39:29;;;;;;;3.33;2.60;;;;;;;3.65;68.89;93856.75;4988599;28;20038;-65
2020/12/30 05:42:17;;;;;;;5.70;2.78;;;;;;;3.75;68.22;93866.31;4989614;28;20030;-66
2020/12/30 05:44:43;;;;;;;6.18;3.08;;;;;;;3.76;68.59;93858.13;4990081;28;20531;-66
2020/12/30 05:47:13;;;;;;;4.45;2.88;;;;;;;3.86;68.40;93868.44;4992006;28;20113;-66
2020/12/30 05:49:39;;;;;;;3.40;2.75;;;;;;;3.85;68.17;93855.59;4989521;28;20085;-65
2020/12/30 05:52:11;;;;;;;3.55;3.00;;;;;;;3.88;68.31;93868.13;4989352;28;20508;-67
2020/12/30 05:54:37;;;;;;;4.75;3.33;;;;;;;3.96;68.05;93872.72;4989847;28;20038;-66
2020/12/30 05:57:18;;;;;;;3.20;2.90;;;;;;;3.87;67.88;93863.97;4988510;28;20042;-67
2020/12/30 05:59:44;;;;;;;3.67;3.35;;;;;;;4.02;67.85;93876.81;4989873;28;20026;-67
2020/12/30 06:02:11;;;;;;;2.95;2.63;;;;;;;4.00;67.53;93872.94;4991314;28;20538;-67
2020/12/30 06:04:37;;;;;;;2.90;2.70;;;;;;;4.05;67.45;93892.03;4989619;28;20039;-67
2020/12/30 06:07:02;;;;;;;4.70;2.90;;;;;;;3.97;67.48;93874.28;4989634;28;20042;-66
2020/12/30 06:09:37;;;;;;;4.05;2.80;;;;;;;4.01;67.67;93885.00;4988209;28;20038;-66
2020/12/30 06:12:05;;;;;;;3.75;3.05;;;;;;;4.09;67.51;93897.47;4988252;28;20471;-67
2020/12/30 06:14:31;;;;;;;3.20;2.70;;;;;;;4.04;67.46;93900.97;4989611;28;20477;-66
2020/12/30 06:17:00;;;;;;;2.90;2.60;;;;;;;4.06;67.42;93908.59;4991456;28;20038;-67
2020/12/30 06:19:27;;;;;;;2.97;2.67;;;;;;;4.09;67.54;93900.88;4989256;28;20042;-67
2020/12/30 06:21:52;;;;;;;4.68;3.08;;;;;;;4.02;67.26;93892.59;4989108;28;20128;-67
2020/12/30 06:24:18;;;;;;;4.13;2.88;;;;;;;4.00;67.63;93891.34;4989690;28;20070;-65
2020/12/30 06:26:43;;;;;;;5.82;2.92;;;;;;;4.01;67.74;93887.63;4993849;28;20073;-65
2020/12/30 06:29:11;;;;;;;5.38;2.95;;;;;;;4.08;67.74;93903.81;4994999;28;20121;-65
2020/12/30 06:31:42;;;;;;;4.50;2.88;;;;;;;4.07;67.65;93908.28;4993088;28;20519;-66
2020/12/30 06:34:08;;;;;;;4.18;2.70;;;;;;;4.01;67.48;93904.19;4993496;28;20093;-66
2020/12/30 06:36:33;;;;;;;3.55;2.53;;;;;;;3.88;67.74;93891.81;4993508;28;20038;-67
2020/12/30 06:38:58;;;;;;;3.60;2.80;;;;;;;4.01;67.84;93908.69;4993244;28;20396;-67
2020/12/30 06:41:26;;;;;;;3.03;2.72;;;;;;;3.98;67.33;93890.84;4993119;28;20110;-66
2020/12/30 06:43:53;;;;;;;3.55;3.00;;;;;;;4.05;67.49;93909.66;4995240;28;20022;-66
2020/12/30 06:46:21;;;;;;;4.32;3.17;;;;;;;4.15;67.49;93926.03;4993369;28;20121;-66
2020/12/30 06:49:04;;;;;;;3.65;2.72;;;;;;;4.16;67.39;93921.56;4992922;28;20042;-66
2020/12/30 06:51:36;;;;;;;;;;;;;;;4.17;67.18;93925.75;4993274;28;20046;-67
2020/12/30 06:54:02;;;;;;;3.55;2.97;;;;;;;4.13;67.16;93917.63;4993370;28;19922;-70
2020/12/30 06:56:45;;;;;;;4.30;2.83;;;;;;;4.16;67.07;93929.44;4993126;28;20116;-66
2020/12/30 06:59:26;;;;;;;2.85;2.50;;;;;;;4.06;67.24;93930.41;4994578;28;20430;-67
2020/12/30 07:02:02;;;;;;;5.15;3.13;;;;;;;4.08;67.33;93928.25;4992173;28;20516;-67
2020/12/30 07:04:32;;;;;;;3.40;2.80;;;;;;;4.04;67.05;93934.41;4993035;28;20055;-66
2020/12/30 07:06:58;;;;;;;3.17;2.58;;;;;;;3.87;67.07;93919.19;4992890;28;20046;-66
2020/12/30 07:09:31;;;;;;;5.03;2.72;;;;;;;3.72;67.11;93906.31;4992580;28;20048;-66
2020/12/30 07:12:02;;;;;;;3.70;2.40;;;;;;;3.87;67.46;93943.66;4992461;28;20046;-67
2020/12/30 07:14:29;;;;;;;4.57;2.42;;;;;;;3.67;67.07;93914.31;4992997;28;20113;-67
2020/12/30 07:16:55;;;;;;;2.55;2.30;;;;;;;3.67;67.00;93916.94;4994631;28;20034;-66
2020/12/30 07:19:28;;;;;;;2.15;1.83;;;;;;;3.83;67.25;93952.41;4992353;28;20042;-66
2020/12/30 07:21:59;;;;;;;3.55;2.63;;;;;;;3.57;67.12;93912.63;4992486;28;20042;-66
2020/12/30 07:24:28;;;;;;;3.00;2.30;;;;;;;3.59;66.77;93910.50;4992663;28;20053;-72
2020/12/30 07:26:56;;;;;;;3.60;2.40;;;;;;;3.84;66.66;93948.72;4990725;28;20045;-69
2020/12/30 07:29:22;;;;;;;2.13;1.63;;;;;;;3.71;66.63;93929.22;4991882;28;20041;-66
2020/12/30 07:31:51;;;;;;;6.88;2.20;;;;;;;3.84;66.62;93960.03;4994274;28;20113;-67
2020/12/30 07:34:25;;;;;;;3.33;1.77;;;;;;;3.86;66.27;93954.47;4993238;28;20188;-64
2020/12/30 07:36:52;;;;;;;5.85;1.95;;;;;;;3.89;66.22;93959.94;4992157;28;20051;-65
2020/12/30 07:39:23;;;;;;;3.75;1.77;;;;;;;3.90;66.43;93966.75;4992928;28;20039;-65
2020/12/30 07:41:49;;;;;;;2.35;2.15;;;;;;;3.95;65.74;93967.75;4992919;28;20026;-63
2020/12/30 07:44:14;;;;;;;3.75;1.80;;;;;;;3.96;65.75;93974.56;4994252;28;20029;-69
2020/12/30 07:46:41;;;;;;;2.45;1.88;;;;;;;3.96;65.67;93972.69;4992406;28;20088;-74
2020/12/30 07:49:12;;;;;;;2.63;1.90;;;;;;;3.92;65.68;93969.09;4992854;28;20080;-73
2020/12/30 07:51:48;;;;;;;2.78;1.33;;;;;;;3.98;65.38;93975.81;4992912;28;20136;-68
2020/12/30 07:54:15;;;;;;;2.72;1.65;;;;;;;3.56;65.19;93927.63;4993182;28;20044;-67
2020/12/30 07:56:41;;;;;;;1.98;1.55;;;;;;;3.96;65.27;93980.59;4993005;28;20477;-63
2020/12/30 07:59:06;;;;;;;2.70;1.80;;;;;;;3.97;65.04;93974.25;4994023;28;20034;-67
2020/12/30 08:01:32;;;;;;;3.83;2.05;;;;;;;4.05;64.91;93981.50;4992680;28;20451;-69
2020/12/30 08:04:08;;;;;;;3.40;1.90;;;;;;;4.15;64.21;93991.06;4991486;28;20435;-69
2020/12/30 08:06:43;;;;;;;3.47;1.92;;;;;;;4.18;64.31;93993.88;4992168;28;20054;-66
2020/12/30 08:09:09;;;;;;;3.75;1.65;;;;;;;4.19;64.08;93992.00;4991343;28;20046;-65
2020/12/30 08:11:35;;;;;;;3.10;1.90;;;;;;;4.20;63.66;94001.50;4992393;28;20049;-66
2020/12/30 08:14:08;;;;;;;2.45;1.83;;;;;;;4.22;63.77;94001.19;4993483;28;20033;-71
2020/12/30 08:16:34;;;;;;;3.67;2.08;;;;;;;4.09;63.76;93977.19;4991589;28;20081;-78
2020/12/30 08:19:01;;;;;;;4.53;1.92;;;;;;;4.38;63.44;94015.63;4992189;28;20564;-73
2020/12/30 08:21:26;;;;;;;2.78;1.60;;;;;;;4.47;63.25;93992.03;4991189;28;20400;-71
2020/12/30 08:24:10;;;;;;;1.90;1.70;;;;;;;4.78;62.85;94008.00;4992559;28;20034;-65
2020/12/30 08:26:36;;;;;;;2.38;1.58;;;;;;;4.57;62.05;93944.44;4990890;28;20468;-76
2020/12/30 08:29:03;;;;;;;2.95;1.85;;;;;;;5.16;61.16;93990.06;4992354;28;20373;-64
2020/12/30 08:31:39;;;;;;;1.92;1.30;;;;;;;5.53;60.37;94018.00;4991782;28;20038;-69
2020/12/30 08:34:07;;;;;;;3.72;1.70;;;;;;;5.78;58.91;94010.53;4991489;28;20510;-66
2020/12/30 08:36:39;;;;;;;2.72;1.60;;;;;;;5.97;58.13;94016.44;4991825;28;20047;-68
2020/12/30 08:39:06;;;;;;;1.90;1.30;;;;;;;6.23;57.71;94025.28;4990885;28;20061;-66
2020/12/30 08:41:32;;;;;;;2.38;1.30;;;;;;;6.42;57.26;94016.34;4991396;28;20284;-72
2020/12/30 08:44:00;;;;;;;3.40;1.60;;;;;;;6.72;56.50;94017.41;4993613;28;20026;-71
2020/12/30 08:46:26;;;;;;;3.60;2.08;;;;;;;6.94;56.11;94032.38;4990362;28;20046;-69
2020/12/30 08:48:53;;;;;;;2.60;1.42;;;;;;;6.87;54.79;94016.97;4989938;28;20049;-69
2020/12/30 08:51:33;;;;;;;3.00;1.60;;;;;;;7.00;54.22;94031.91;4991349;28;20488;-68
2020/12/30 08:53:59;;;;;;;1.88;1.50;;;;;;;7.15;54.04;94038.63;4990718;28;20405;-70
2020/12/30 08:56:25;;;;;;;3.05;1.67;;;;;;;7.15;54.44;94009.56;4990804;28;20030;-69
2020/12/30 08:58:56;;;;;;;1.73;1.48;;;;;;;7.45;53.21;94047.56;4993014;28;20085;-71
2020/12/30 09:01:26;;;;;;;2.55;1.30;;;;;;;6.89;51.78;94019.31;4991367;28;20373;-73
2020/12/30 09:03:52;;;;;;;2.67;1.60;;;;;;;7.26;53.01;94047.06;4991720;28;20089;-72
2020/12/30 09:06:28;;;;;;;1.63;1.50;;;;;;;7.40;53.22;94034.47;4989867;28;20050;-63
2020/12/30 09:08:54;;;;;;;2.40;1.58;;;;;;;7.51;52.80;94034.94;4991633;28;20034;-62
2020/12/30 09:11:19;;;;;;;2.83;1.88;;;;;;;7.55;52.31;94027.94;4991914;28;20120;-63
2020/12/30 09:13:44;;;;;;;2.78;1.63;;;;;;;7.56;52.02;94032.16;4992857;28;20344;-71
2020/12/30 09:16:12;;;;;;;2.95;1.75;;;;;;;7.51;52.47;94025.13;4991556;28;20038;-69
2020/12/30 09:18:38;;;;;;;2.80;2.00;;;;;;;7.62;51.68;94046.78;4991178;28;20078;-66
2020/12/30 09:21:03;;;;;;;3.70;2.13;;;;;;;7.51;52.25;94037.59;4991490;28;20538;-69
2020/12/30 09:23:29;;;;;;;2.85;1.60;;;;;;;7.48;52.72;94041.66;4989766;28;20018;-65
2020/12/30 09:25:56;;;;;;;2.17;1.95;;;;;;;7.32;52.60;94026.53;4993126;28;20040;-68
2020/12/30 09:28:23;;;;;;;2.63;2.15;;;;;;;7.49;52.10;94051.13;4990221;28;20373;-64
2020/12/30 09:30:54;;;;;;;3.97;2.15;;;;;;;7.55;52.30;94043.81;4990641;28;20491;-66
2020/12/30 09:33:21;;;;;;;2.67;2.03;;;;;;;7.68;51.83;94048.19;4988377;28;20035;-66
2020/12/30 09:35:48;;;;;;;3.25;2.03;;;;;;;7.71;51.17;94050.19;4990977;28;20137;-63
2020/12/30 09:38:21;;;;;;;1.55;1.42;;;;;;;6.02;53.80;94058.53;4991297;28;20022;-71
2020/12/30 09:40:55;;;;;;;1.98;1.45;;;;;;;6.51;53.17;94031.16;4991380;28;20042;-72
2020/12/30 09:43:22;;;;;;;1.88;1.65;;;;;;;7.08;53.58;94048.91;4990514;28;20125;-64
2020/12/30 09:45:49;;;;;;;3.50;1.90;;;;;;;6.49;52.86;94049.16;4990834;28;20042;-64
2020/12/30 09:48:16;;;;;;;2.85;1.90;;;;;;;6.97;52.58;94050.28;4990347;28;20105;-65
2020/12/30 09:50:43;;;;;;;3.10;1.63;;;;;;;7.27;52.27;94062.63;5006301;23;20059;-69
2020/12/30 09:53:09;;;;;;;1.65;1.40;;;;;;;7.41;51.47;94064.34;5007304;28;20034;-70
2020/12/30 09:55:35;;;;;;;1.85;1.75;;;;;;;7.44;51.17;94039.94;4990728;28;20764;-70
2020/12/30 09:58:00;;;;;;;1.70;1.60;;;;;;;7.51;51.12;94032.28;4990273;28;20116;-69
2020/12/30 10:00:26;;;;;;;2.03;1.50;;;;;;;7.68;51.41;94042.13;4989740;28;20085;-71
2020/12/30 10:02:52;;;;;;;1.40;1.25;;;;;;;7.61;50.92;94018.75;4989970;28;20467;-70
2020/12/30 10:05:17;;;;;;;2.35;1.60;;;;;;;7.65;51.13;94029.50;4992419;28;20037;-70
2020/12/30 10:07:43;;;;;;;1.70;1.58;;;;;;;7.69;51.37;94025.94;4990551;28;20058;-70
2020/12/30 10:10:08;;;;;;;3.83;1.58;;;;;;;7.75;51.75;94027.31;4990252;28;20034;-72
2020/12/30 10:12:37;;;;;;;3.05;1.65;;;;;;;7.94;51.14;94032.28;4988900;28;20077;-69
2020/12/30 10:15:04;;;;;;;2.70;1.85;;;;;;;7.98;50.46;94016.53;4990339;28;20511;-70
2020/12/30 10:17:29;;;;;;;1.98;1.80;;;;;;;8.14;50.58;94025.56;4990472;28;20026;-69
2020/12/30 10:19:55;;;;;;;2.90;1.80;;;;;;;8.30;50.35;94029.25;4990794;28;20768;-69
2020/12/30 10:22:20;;;;;;;3.25;1.90;;;;;;;8.38;50.24;94033.00;4988618;28;20043;-69
2020/12/30 10:24:47;;;;;;;2.13;1.73;;;;;;;8.50;49.78;94029.69;4990126;28;20547;-70
2020/12/30 10:27:15;;;;;;;4.88;2.47;;;;;;;8.56;49.45;94031.06;4990220;28;20188;-70
2020/12/30 10:29:40;;;;;;;4.07;1.52;;;;;;;8.69;49.47;94035.38;4988512;28;20566;-70
2020/12/30 10:32:06;;;;;;;3.20;1.83;;;;;;;8.73;49.12;94025.69;4991848;28;20062;-69
2020/12/30 10:34:32;;;;;;;1.92;1.70;;;;;;;8.79;48.74;94026.28;4990365;28;20042;-72
2020/12/30 10:36:58;;;;;;;2.45;1.60;;;;;;;8.77;48.28;94015.25;4990303;28;20121;-72
2020/12/30 10:39:23;;;;;;;2.13;1.40;;;;;;;8.95;48.42;94029.16;4985490;28;20086;-71
2020/12/30 10:41:53;;;;;;;3.58;1.67;;;;;;;9.05;47.90;94034.13;4974352;28;20428;-70
2020/12/30 10:44:19;;;;;;;3.38;2.00;;;;;;;9.06;48.13;94017.13;4992159;28;20030;-70
2020/12/30 10:46:45;;;;;;;1.63;1.35;;;;;;;9.22;48.23;94030.59;4989147;28;20041;-71
2020/12/30 10:49:11;;;;;;;2.55;1.50;;;;;;;9.26;47.68;94028.84;4988797;28;20093;-69
2020/12/30 10:51:36;;;;;;;1.85;1.50;;;;;;;9.15;47.21;94020.47;4989396;28;20046;-70
2020/12/30 10:54:01;;;;;;;2.25;2.05;;;;;;;8.63;48.11;94031.34;4990287;28;20451;-69
2020/12/30 10:56:27;;;;;;;3.58;2.05;;;;;;;6.70;53.82;94041.47;4990116;28;20022;-70
2020/12/30 10:58:52;;;;;;;2.78;1.90;;;;;;;6.16;55.60;94050.56;4990935;28;20328;-73
2020/12/30 11:01:17;;;;;;;4.32;1.52;;;;;;;5.63;57.38;94048.59;4989719;28;20034;-69
2020/12/30 11:03:43;;;;;;;2.08;1.88;;;;;;;6.03;56.55;94046.13;4988742;28;20065;-70
2020/12/30 11:06:09;;;;;;;3.20;2.10;;;;;;;6.23;56.58;94042.97;4990013;28;20030;-69
2020/12/30 11:08:35;;;;;;;2.47;1.77;;;;;;;5.94;56.25;94032.91;4989719;28;20105;-68
2020/12/30 11:11:02;;;;;;;1.65;1.52;;;;;;;6.24;56.36;94040.06;4991662;28;20114;-67
2020/12/30 11:13:27;;;;;;;3.75;1.70;;;;;;;5.96;56.86;94036.00;4993167;28;20039;-67
2020/12/30 11:15:53;;;;;;;2.70;1.80;;;;;;;6.22;56.17;94046.72;4993730;28;20041;-69
2020/12/30 11:18:19;;;;;;;3.33;2.33;;;;;;;6.30;56.12;94045.22;4993152;28;20046;-67
2020/12/30 11:20:45;;;;;;;2.38;2.00;;;;;;;6.40;55.63;94031.75;4993347;28;20034;-69
2020/12/30 11:23:11;;;;;;;2.15;1.63;;;;;;;5.62;57.06;94053.09;4995198;28;20031;-65
2020/12/30 11:25:37;;;;;;;2.25;1.92;;;;;;;6.23;55.86;94050.91;4993231;28;20042;-69
2020/12/30 11:28:03;;;;;;;2.90;2.10;;;;;;;6.77;55.32;94041.81;4992723;28;20031;-69
2020/12/30 11:30:30;;;;;;;4.15;1.75;;;;;;;7.19;54.21;94044.88;4992780;28;20034;-69
2020/12/30 11:32:56;;;;;;;4.32;1.92;;;;;;;6.64;53.88;94024.19;4991563;28;20122;-67
2020/12/30 11:35:21;;;;;;;2.35;2.00;;;;;;;6.93;53.95;94028.97;4993127;28;20057;-69
2020/12/30 11:37:46;;;;;;;2.63;2.10;;;;;;;6.82;54.17;94045.41;4993513;28;20026;-69
2020/12/30 11:40:12;;;;;;;2.17;1.90;;;;;;;7.43;52.66;94038.38;4992707;28;20050;-70